Hauptseite
METAR-TAF:

METAR-TAF

Flughäfen :

Flughafen Faleolo

Apia, Upolu, Samoa

Breite: 13-49S, Länge: 172-00W, Höhe: 5 m

Beobachtung

Neuester Wetterbericht von vor 50 Minuten, um 03:00 UTC
Temperatur 34°C
Luftfeuchtigkeit 63%
Luftdruck 1010 hPa
Sichtweite 10 km oder mehr
Aufgelockert bewölkt in der Höhe von 2300 ft

METAR: NSFA 020300Z 0501KT 9999 SCT023 34/26 Q1010

Zeit: 17:50 (03:50 UTC)

Prognose

Neuester Wetterbericht von vor 4 Stunden und 44 Minuten, um 23:06 UTC
Gültige Prognose vom 02 um 00 UTC bis 02 um 24 UTC
Wind 10 kt aus Ost
Sichtweite 10 km oder mehr
Leicht bewölkt in der Höhe von 2000 ft
Aufgelockert bewölkt in der Höhe von 2200 ft
Wahrscheinlichkeit 40% :
Zeitweise
vom 02 um 00 UTC bis 02 um 06 UTC
Sichtweite: 5000 m
Leicht bewölkt in der Höhe von 1800 ft, Kumulonimbus.
Gewitter, Regen,

TAF: NSFA 012306Z 0200/0224 08010KT 9999 FEW020 SCT022 PROB40 TEMPO 0200/0206 5000 TSRA FEW018CB

Wetterbeobachtungen und Prognosen von mehr als 4000 Flughäfen (METAR und TAF Bericht).

Die verfügbaren Stationen werden durch gelbe und rote Markierungen auf der Karte dargestellt.

Führen Sie die Maus auf sie, um den Namen der Station zu sehen.

Darauf klicken, um die Beobachtung von Wetterbeobachtungen und Prognosen zu sehen.

Um die Karte zu ändern : klicken Sie auf den grünen Tasten mit einem schwarzen Kreuz Zum Vergrößern, auf den grünen Button mit einem Gedankenstrich zu verkleinern, oder auf die grünen Pfeile für benachbarte Karten.


METAR-TAF: